Time;durP1;ratioP1;P1;durP2;ratioP2;P2;SDS_P1;SDS_P2;PMS_P1;PMS_P2;Temp;Humidity;BMP_temperature;BMP_pressure;BME280_temperature;BME280_humidity;BME280_pressure;Samples;Min_cycle;Max_cycle;Signal;HPM_P1;HPM_P2
2021/09/19 00:01:18;;;;;;;7.40;4.30;;;;;;;;;;5114781;28;20925;-71
2021/09/19 00:03:48;;;;;;;6.20;3.30;;;;;;;;;;5115316;28;20569;-71
2021/09/19 00:06:18;;;;;;;6.20;3.87;;;;;;;;;;5116289;28;20458;-71
2021/09/19 00:08:46;;;;;;;5.00;3.00;;;;;;;;;;5115486;28;20719;-71
2021/09/19 00:11:26;;;;;;;4.17;3.73;;;;;;;;;;5116038;28;20614;-71
2021/09/19 00:13:54;;;;;;;5.70;3.23;;;;;;;;;;5115820;28;20451;-71
2021/09/19 00:16:25;;;;;;;4.67;3.20;;;;;;;;;;5116207;28;20920;-71
2021/09/19 00:19:01;;;;;;;12.10;3.60;;;;;;;;;;5109940;28;20458;-71
2021/09/19 00:21:50;;;;;;;5.20;3.77;;;;;;;;;;5116257;28;20450;-71
2021/09/19 00:24:37;;;;;;;6.40;3.60;;;;;;;;;;5112365;28;20483;-71
2021/09/19 00:27:20;;;;;;;4.83;2.83;;;;;;;;;;5117712;28;20534;-71
2021/09/19 00:29:48;;;;;;;7.80;4.37;;;;;;;;;;5120246;28;20470;-71
2021/09/19 00:32:19;;;;;;;6.93;3.57;;;;;;;;;;5119978;28;20534;-71
2021/09/19 00:34:48;;;;;;;6.03;3.77;;;;;;;;;;5119328;28;20447;-71
2021/09/19 00:37:16;;;;;;;5.50;3.57;;;;;;;;;;5120310;28;20454;-71
2021/09/19 00:39:44;;;;;;;5.80;3.27;;;;;;;;;;5119623;28;20459;-71
2021/09/19 00:42:12;;;;;;;4.93;3.40;;;;;;;;;;5120084;28;20697;-71
2021/09/19 00:44:40;;;;;;;9.40;3.67;;;;;;;;;;5119596;28;20856;-71
2021/09/19 00:47:09;;;;;;;6.63;3.70;;;;;;;;;;5119482;28;20462;-70
2021/09/19 00:49:37;;;;;;;7.83;3.37;;;;;;;;;;5119706;28;20443;-71
2021/09/19 00:52:07;;;;;;;6.00;2.80;;;;;;;;;;5118988;28;20783;-72
2021/09/19 00:54:39;;;;;;;6.50;3.60;;;;;;;;;;5119578;28;20586;-71
2021/09/19 00:57:08;;;;;;;9.00;2.70;;;;;;;;;;5119425;28;20485;-71
2021/09/19 00:59:38;;;;;;;7.77;3.70;;;;;;;;;;5119522;28;20462;-71
2021/09/19 01:02:11;;;;;;;8.30;4.00;;;;;;;;;;5118719;28;20497;-71
2021/09/19 01:04:39;;;;;;;4.67;3.03;;;;;;;;;;5115014;28;20522;-70
2021/09/19 01:07:11;;;;;;;5.57;3.87;;;;;;;;;;5116920;28;20447;-73
2021/09/19 01:09:40;;;;;;;8.03;3.37;;;;;;;;;;5116095;28;20450;-72
2021/09/19 01:12:10;;;;;;;6.63;3.50;;;;;;;;;;5119522;28;20455;-71
2021/09/19 01:14:39;;;;;;;5.67;2.93;;;;;;;;;;5119787;28;20453;-72
2021/09/19 01:17:10;;;;;;;8.73;4.10;;;;;;;;;;5119439;28;20457;-71
2021/09/19 01:19:41;;;;;;;6.93;3.67;;;;;;;;;;5120502;28;20804;-72
2021/09/19 01:22:15;;;;;;;6.70;3.87;;;;;;;;;;5118405;28;20722;-72
2021/09/19 01:25:03;;;;;;;6.43;3.50;;;;;;;;;;5119391;27;20505;-73
2021/09/19 01:27:32;;;;;;;6.77;3.40;;;;;;;;;;5115995;27;20933;-72
2021/09/19 01:30:00;;;;;;;5.90;3.37;;;;;;;;;;5116973;28;20491;-71
2021/09/19 01:32:28;;;;;;;5.60;2.87;;;;;;;;;;5116599;28;20589;-71
2021/09/19 01:34:56;;;;;;;10.83;3.67;;;;;;;;;;5117689;28;20870;-71
2021/09/19 01:37:24;;;;;;;6.10;4.30;;;;;;;;;;5117858;28;20454;-71
2021/09/19 01:39:53;;;;;;;5.00;3.20;;;;;;;;;;5118146;28;20553;-71
2021/09/19 01:42:21;;;;;;;8.37;4.03;;;;;;;;;;5118559;28;20469;-72
2021/09/19 01:44:49;;;;;;;7.50;4.57;;;;;;;;;;5119407;28;20485;-71
2021/09/19 01:47:18;;;;;;;5.70;3.47;;;;;;;;;;5117837;28;20443;-71
2021/09/19 01:49:47;;;;;;;5.33;3.30;;;;;;;;;;5110121;28;20847;-72
2021/09/19 01:52:15;;;;;;;7.40;2.70;;;;;;;;;;5118594;28;20474;-71
2021/09/19 01:54:43;;;;;;;9.50;2.83;;;;;;;;;;5109353;28;20451;-70
2021/09/19 01:57:12;;;;;;;4.77;3.23;;;;;;;;;;5117996;28;20494;-71
2021/09/19 01:59:40;;;;;;;7.00;3.40;;;;;;;;;;5109298;28;20483;-71
2021/09/19 02:02:19;;;;;;;4.10;3.10;;;;;;;;;;5117015;28;20439;-71
2021/09/19 02:04:51;;;;;;;6.57;3.70;;;;;;;;;;5108497;28;20771;-71
2021/09/19 02:07:20;;;;;;;8.60;3.80;;;;;;;;;;5117000;28;20434;-72
2021/09/19 02:09:48;;;;;;;5.17;2.80;;;;;;;;;;5109028;28;20523;-72
2021/09/19 02:12:18;;;;;;;6.07;3.43;;;;;;;;;;5117435;28;20546;-72
2021/09/19 02:14:46;;;;;;;5.20;3.13;;;;;;;;;;5114133;28;20459;-72
2021/09/19 02:17:15;;;;;;;5.23;3.00;;;;;;;;;;5117661;28;20451;-72
2021/09/19 02:19:43;;;;;;;6.00;3.63;;;;;;;;;;5118457;27;20515;-71
2021/09/19 02:22:15;;;;;;;6.23;2.83;;;;;;;;;;5117871;28;20457;-71
2021/09/19 02:24:43;;;;;;;5.93;3.57;;;;;;;;;;5118505;28;20544;-72
2021/09/19 02:27:11;;;;;;;6.00;2.80;;;;;;;;;;5117711;27;20458;-71
2021/09/19 02:29:41;;;;;;;6.50;3.37;;;;;;;;;;5117567;28;20542;-71
2021/09/19 02:32:09;;;;;;;10.13;3.57;;;;;;;;;;5116627;28;20454;-71
2021/09/19 02:34:37;;;;;;;5.73;3.67;;;;;;;;;;5117094;28;20535;-71
2021/09/19 02:37:05;;;;;;;6.40;3.00;;;;;;;;;;5118441;28;20516;-70
2021/09/19 02:39:34;;;;;;;6.97;3.67;;;;;;;;;;5117575;28;20790;-72
2021/09/19 02:42:02;;;;;;;4.97;3.23;;;;;;;;;;5117011;28;20447;-71
2021/09/19 02:44:31;;;;;;;5.97;2.90;;;;;;;;;;5117602;28;20496;-71
2021/09/19 02:47:00;;;;;;;6.70;3.50;;;;;;;;;;5116950;28;20878;-70
2021/09/19 02:49:28;;;;;;;6.70;3.57;;;;;;;;;;5116912;28;20459;-71
2021/09/19 02:51:56;;;;;;;7.80;3.70;;;;;;;;;;5116972;28;20477;-71
2021/09/19 02:54:28;;;;;;;5.40;3.37;;;;;;;;;;5117027;28;20952;-70
2021/09/19 02:56:56;;;;;;;12.17;5.87;;;;;;;;;;5117054;28;20458;-72
2021/09/19 02:59:25;;;;;;;14.03;5.97;;;;;;;;;;5117198;28;20466;-72
2021/09/19 03:01:53;;;;;;;5.30;4.10;;;;;;;;;;5116393;28;20451;-70
2021/09/19 03:04:22;;;;;;;11.20;6.00;;;;;;;;;;5117001;28;20512;-71
2021/09/19 03:06:50;;;;;;;16.57;7.90;;;;;;;;;;5117243;28;20512;-71
2021/09/19 03:09:18;;;;;;;13.20;5.50;;;;;;;;;;5116624;28;20527;-71
2021/09/19 03:11:46;;;;;;;9.00;5.03;;;;;;;;;;5117537;28;20881;-72
2021/09/19 03:14:14;;;;;;;7.30;3.80;;;;;;;;;;5117396;28;20553;-72
2021/09/19 03:16:43;;;;;;;7.70;3.60;;;;;;;;;;5116935;28;20450;-72
2021/09/19 03:19:11;;;;;;;5.13;3.23;;;;;;;;;;5117431;28;20459;-72
2021/09/19 03:21:40;;;;;;;4.63;3.17;;;;;;;;;;5117799;28;20509;-71
2021/09/19 03:24:09;;;;;;;5.53;3.57;;;;;;;;;;5117350;28;20454;-72
2021/09/19 03:26:37;;;;;;;5.97;3.93;;;;;;;;;;5117492;28;20530;-72
2021/09/19 03:29:05;;;;;;;5.70;3.13;;;;;;;;;;5116418;28;20525;-72
2021/09/19 03:31:33;;;;;;;9.83;4.30;;;;;;;;;;5116175;28;20763;-72
2021/09/19 03:34:01;;;;;;;11.40;3.93;;;;;;;;;;5116749;28;20485;-72
2021/09/19 03:36:30;;;;;;;8.00;4.13;;;;;;;;;;5116491;28;20473;-73
2021/09/19 03:38:59;;;;;;;7.27;3.60;;;;;;;;;;5117313;28;20947;-72
2021/09/19 03:41:28;;;;;;;10.33;3.47;;;;;;;;;;5116876;28;20454;-71
2021/09/19 03:43:58;;;;;;;5.47;3.07;;;;;;;;;;5116220;28;20513;-71
2021/09/19 03:46:26;;;;;;;6.27;3.53;;;;;;;;;;5115732;28;20489;-71
2021/09/19 03:48:54;;;;;;;7.57;2.77;;;;;;;;;;5116992;28;20874;-71
2021/09/19 03:51:22;;;;;;;7.00;3.07;;;;;;;;;;5117257;28;20455;-71
2021/09/19 03:53:50;;;;;;;8.97;3.40;;;;;;;;;;5116352;28;20462;-71
2021/09/19 03:56:20;;;;;;;8.77;3.50;;;;;;;;;;5116775;28;20443;-71
2021/09/19 03:58:49;;;;;;;6.40;4.03;;;;;;;;;;5116317;28;20473;-71
2021/09/19 04:01:23;;;;;;;3.73;2.20;;;;;;;;;;5118021;28;21025;-71
2021/09/19 04:03:51;;;;;;;5.23;3.37;;;;;;;;;;5121083;28;20450;-71
2021/09/19 04:06:18;;;;;;;7.00;3.80;;;;;;;;;;5119860;28;20821;-71
2021/09/19 04:08:46;;;;;;;5.57;3.40;;;;;;;;;;5120904;28;20507;-72
2021/09/19 04:11:15;;;;;;;6.90;3.03;;;;;;;;;;5120486;28;20831;-72
2021/09/19 04:13:45;;;;;;;4.97;2.90;;;;;;;;;;5120374;28;20442;-71
2021/09/19 04:16:12;;;;;;;7.10;3.23;;;;;;;;;;5120340;28;20517;-72
2021/09/19 04:18:41;;;;;;;5.60;3.30;;;;;;;;;;5119880;28;20543;-71
2021/09/19 04:21:09;;;;;;;4.73;2.90;;;;;;;;;;5119470;28;20722;-71
2021/09/19 04:23:37;;;;;;;7.20;3.30;;;;;;;;;;5120707;28;20487;-71
2021/09/19 04:26:04;;;;;;;5.93;2.87;;;;;;;;;;5119991;28;20482;-71
2021/09/19 04:28:32;;;;;;;5.20;3.23;;;;;;;;;;5119773;28;20799;-71
2021/09/19 04:31:05;;;;;;;6.50;3.80;;;;;;;;;;5120625;28;20497;-70
2021/09/19 04:33:34;;;;;;;6.20;3.10;;;;;;;;;;5119044;28;20875;-71
2021/09/19 04:36:04;;;;;;;6.43;2.90;;;;;;;;;;5103490;28;20817;-71
2021/09/19 04:38:33;;;;;;;8.10;3.70;;;;;;;;;;5119920;28;20454;-71
2021/09/19 04:41:03;;;;;;;8.33;3.00;;;;;;;;;;5119308;28;20458;-71
2021/09/19 04:43:32;;;;;;;4.47;2.17;;;;;;;;;;5120074;28;20465;-71
2021/09/19 04:46:05;;;;;;;4.60;3.27;;;;;;;;;;5117855;28;20470;-70
2021/09/19 04:48:34;;;;;;;5.13;3.10;;;;;;;;;;5117047;28;20458;-71
2021/09/19 04:51:02;;;;;;;6.97;3.00;;;;;;;;;;5118953;28;20459;-72
2021/09/19 04:53:35;;;;;;;5.23;3.30;;;;;;;;;;5119648;28;20663;-70
2021/09/19 04:56:03;;;;;;;8.70;3.43;;;;;;;;;;5119200;28;20475;-71
2021/09/19 04:58:30;;;;;;;5.93;3.10;;;;;;;;;;5119680;28;20462;-72
2021/09/19 05:01:02;;;;;;;5.33;3.07;;;;;;;;;;5118638;28;20727;-72
2021/09/19 05:03:31;;;;;;;4.13;2.77;;;;;;;;;;5118917;28;20820;-70
2021/09/19 05:06:00;;;;;;;4.50;2.83;;;;;;;;;;5118568;28;20822;-70
2021/09/19 05:08:28;;;;;;;5.53;3.33;;;;;;;;;;5118863;28;20454;-70
2021/09/19 05:10:57;;;;;;;6.13;3.53;;;;;;;;;;5119283;28;20470;-71
2021/09/19 05:13:25;;;;;;;7.60;3.87;;;;;;;;;;5118493;28;20945;-71
2021/09/19 05:15:54;;;;;;;5.23;2.90;;;;;;;;;;5119083;28;20512;-71
2021/09/19 05:18:26;;;;;;;5.23;3.10;;;;;;;;;;5118421;28;21066;-72
2021/09/19 05:20:56;;;;;;;8.23;3.80;;;;;;;;;;5118462;28;20509;-71
2021/09/19 05:23:23;;;;;;;4.63;3.03;;;;;;;;;;5118909;28;20455;-71
2021/09/19 05:25:51;;;;;;;5.47;3.27;;;;;;;;;;5112015;28;20482;-71
2021/09/19 05:28:20;;;;;;;5.97;3.23;;;;;;;;;;5112711;28;20912;-71
2021/09/19 05:30:47;;;;;;;5.90;3.30;;;;;;;;;;5118853;28;20530;-71
2021/09/19 05:33:15;;;;;;;8.77;3.57;;;;;;;;;;5118494;28;20735;-71
2021/09/19 05:35:43;;;;;;;4.60;3.10;;;;;;;;;;5119038;28;20538;-70
2021/09/19 05:38:16;;;;;;;4.03;2.60;;;;;;;;;;5118740;28;20450;-71
2021/09/19 05:40:44;;;;;;;5.00;3.20;;;;;;;;;;5095242;28;20444;-71
2021/09/19 05:43:12;;;;;;;4.20;2.70;;;;;;;;;;5097780;28;20697;-71
2021/09/19 05:45:40;;;;;;;4.53;2.80;;;;;;;;;;5098378;28;20511;-71
2021/09/19 05:48:08;;;;;;;4.50;3.10;;;;;;;;;;5101894;28;20788;-71
2021/09/19 05:50:36;;;;;;;7.53;3.37;;;;;;;;;;5118090;28;20451;-71
2021/09/19 05:53:04;;;;;;;4.40;3.13;;;;;;;;;;5109553;28;20905;-71
2021/09/19 05:55:34;;;;;;;5.47;3.40;;;;;;;;;;5117568;28;20434;-71
2021/09/19 05:58:05;;;;;;;6.50;3.03;;;;;;;;;;5108784;28;20538;-71
2021/09/19 06:00:33;;;;;;;6.23;3.07;;;;;;;;;;5107141;28;20474;-71
2021/09/19 06:03:01;;;;;;;5.10;3.07;;;;;;;;;;5109654;28;20455;-71
2021/09/19 06:05:29;;;;;;;6.33;3.50;;;;;;;;;;5133700;27;20919;-71
2021/09/19 06:07:57;;;;;;;5.00;2.23;;;;;;;;;;5138843;27;20879;-71
2021/09/19 06:10:25;;;;;;;6.27;3.83;;;;;;;;;;5137956;27;20446;-71
2021/09/19 06:12:55;;;;;;;4.83;3.00;;;;;;;;;;5137966;27;20449;-71
2021/09/19 06:15:23;;;;;;;5.40;3.20;;;;;;;;;;5118635;27;20447;-71
2021/09/19 06:17:50;;;;;;;6.97;3.03;;;;;;;;;;5117604;28;20462;-69
2021/09/19 06:20:18;;;;;;;4.40;3.37;;;;;;;;;;5117243;28;20571;-71
2021/09/19 06:22:49;;;;;;;31.73;3.80;;;;;;;;;;5116901;28;20450;-71
2021/09/19 06:25:16;;;;;;;4.57;2.57;;;;;;;;;;5116348;28;20723;-71
2021/09/19 06:27:44;;;;;;;6.97;2.90;;;;;;;;;;5108224;28;20517;-71
2021/09/19 06:30:14;;;;;;;4.70;3.10;;;;;;;;;;5117239;28;20446;-72
2021/09/19 06:32:42;;;;;;;3.40;2.63;;;;;;;;;;5117114;28;20458;-72
2021/09/19 06:35:11;;;;;;;7.90;2.80;;;;;;;;;;5117536;28;20459;-71
2021/09/19 06:37:39;;;;;;;7.17;2.77;;;;;;;;;;5116957;28;20443;-72
2021/09/19 06:40:08;;;;;;;4.13;2.67;;;;;;;;;;5116670;28;20477;-72
2021/09/19 06:42:36;;;;;;;6.10;3.63;;;;;;;;;;5116222;28;20447;-70
2021/09/19 06:45:05;;;;;;;4.97;2.90;;;;;;;;;;5116896;28;20460;-71
2021/09/19 06:47:34;;;;;;;4.13;2.53;;;;;;;;;;5116544;28;20490;-72
2021/09/19 06:50:02;;;;;;;5.57;2.90;;;;;;;;;;5116558;28;20451;-72
2021/09/19 06:52:30;;;;;;;4.77;2.53;;;;;;;;;;5116179;28;20462;-72
2021/09/19 06:54:58;;;;;;;4.87;3.37;;;;;;;;;;5116971;28;20443;-71
2021/09/19 06:57:25;;;;;;;4.10;2.67;;;;;;;;;;5116516;28;20459;-71
2021/09/19 06:59:53;;;;;;;5.97;3.10;;;;;;;;;;5115695;28;20479;-71
2021/09/19 07:02:21;;;;;;;6.73;3.53;;;;;;;;;;5115597;28;20543;-71
2021/09/19 07:04:51;;;;;;;4.33;3.10;;;;;;;;;;5115246;28;20451;-71
2021/09/19 07:07:19;;;;;;;5.57;2.47;;;;;;;;;;5113457;28;20587;-71
2021/09/19 07:09:47;;;;;;;4.97;2.60;;;;;;;;;;5115554;28;20442;-71
2021/09/19 07:12:15;;;;;;;6.57;3.20;;;;;;;;;;5110526;28;20902;-71
2021/09/19 07:14:45;;;;;;;4.63;2.90;;;;;;;;;;5110682;28;20452;-72
2021/09/19 07:17:14;;;;;;;4.47;2.40;;;;;;;;;;5115533;28;20553;-71
2021/09/19 07:19:48;;;;;;;6.03;3.17;;;;;;;;;;5112349;28;20512;-71
2021/09/19 07:22:17;;;;;;;3.77;2.50;;;;;;;;;;5107246;28;20454;-71
2021/09/19 07:24:45;;;;;;;5.87;2.87;;;;;;;;;;5112646;28;20443;-70
2021/09/19 07:27:13;;;;;;;4.97;2.40;;;;;;;;;;5110127;28;20479;-71
2021/09/19 07:29:42;;;;;;;4.50;3.00;;;;;;;;;;5112139;28;20451;-71
2021/09/19 07:32:12;;;;;;;4.83;2.83;;;;;;;;;;5110694;28;20457;-71
2021/09/19 07:34:43;;;;;;;12.00;3.00;;;;;;;;;;5112480;28;20548;-70
2021/09/19 07:37:12;;;;;;;3.70;2.50;;;;;;;;;;5118220;28;20529;-71
2021/09/19 07:39:43;;;;;;;8.40;2.97;;;;;;;;;;5111364;28;20450;-70
2021/09/19 07:42:11;;;;;;;8.67;3.80;;;;;;;;;;5111211;28;20497;-72
2021/09/19 07:44:39;;;;;;;3.10;2.10;;;;;;;;;;5119309;28;20447;-72
2021/09/19 07:47:13;;;;;;;3.97;2.93;;;;;;;;;;5120613;28;20489;-71
2021/09/19 07:49:41;;;;;;;5.20;3.00;;;;;;;;;;5117776;28;20458;-71
2021/09/19 07:52:11;;;;;;;3.87;2.30;;;;;;;;;;5113033;28;20463;-71
2021/09/19 07:54:43;;;;;;;5.23;3.10;;;;;;;;;;5119509;28;20882;-70
2021/09/19 07:57:11;;;;;;;4.30;2.60;;;;;;;;;;5113747;28;20462;-72
2021/09/19 07:59:51;;;;;;;5.77;3.03;;;;;;;;;;5109850;28;20862;-72
2021/09/19 08:02:21;;;;;;;4.97;3.10;;;;;;;;;;5108495;28;20789;-72
2021/09/19 08:04:53;;;;;;;7.00;3.53;;;;;;;;;;5119133;28;20442;-71
2021/09/19 08:07:26;;;;;;;7.00;3.17;;;;;;;;;;5119228;28;20479;-72
2021/09/19 08:10:05;;;;;;;4.23;2.90;;;;;;;;;;5118452;28;20549;-72
2021/09/19 08:12:35;;;;;;;6.50;3.03;;;;;;;;;;5118178;28;20470;-71
2021/09/19 08:15:04;;;;;;;3.83;2.43;;;;;;;;;;5117697;28;20859;-71
2021/09/19 08:17:31;;;;;;;4.70;2.80;;;;;;;;;;5117672;28;20465;-72
2021/09/19 08:19:59;;;;;;;4.37;2.90;;;;;;;;;;5117815;28;20888;-71
2021/09/19 08:22:28;;;;;;;3.67;2.13;;;;;;;;;;5117601;28;20553;-72
2021/09/19 08:25:00;;;;;;;5.07;2.90;;;;;;;;;;5117277;28;20443;-71
2021/09/19 08:27:43;;;;;;;5.47;2.73;;;;;;;;;;5117507;28;20785;-71
2021/09/19 08:30:12;;;;;;;5.20;2.57;;;;;;;;;;5117328;28;20456;-71
2021/09/19 08:32:44;;;;;;;5.50;3.23;;;;;;;;;;5118570;28;20463;-72
2021/09/19 08:35:13;;;;;;;8.57;2.97;;;;;;;;;;5118413;28;20722;-71
2021/09/19 08:37:41;;;;;;;3.77;2.30;;;;;;;;;;5117725;28;20461;-70
2021/09/19 08:40:13;;;;;;;4.47;2.47;;;;;;;;;;5117729;28;20455;-71
2021/09/19 08:42:42;;;;;;;8.10;3.33;;;;;;;;;;5109769;28;20447;-71
2021/09/19 08:45:28;;;;;;;6.10;2.30;;;;;;;;;;5118063;28;20898;-70
2021/09/19 08:48:03;;;;;;;5.13;3.33;;;;;;;;;;5116755;28;20549;-71
2021/09/19 08:50:33;;;;;;;5.37;2.93;;;;;;;;;;5117815;28;20460;-72
2021/09/19 08:53:01;;;;;;;4.90;2.60;;;;;;;;;;5114752;28;20467;-71
2021/09/19 08:55:31;;;;;;;5.33;2.70;;;;;;;;;;5116916;28;20462;-71
2021/09/19 08:57:59;;;;;;;7.67;2.80;;;;;;;;;;5117474;28;20870;-70
2021/09/19 09:00:28;;;;;;;6.17;2.33;;;;;;;;;;5115252;28;20734;-71
2021/09/19 09:02:57;;;;;;;4.23;2.33;;;;;;;;;;5117484;28;20442;-71
2021/09/19 09:05:26;;;;;;;4.93;2.20;;;;;;;;;;5114352;28;20474;-71
2021/09/19 09:07:55;;;;;;;4.03;2.97;;;;;;;;;;5116937;28;20754;-72
2021/09/19 09:10:35;;;;;;;4.27;2.63;;;;;;;;;;5117651;28;20453;-71
2021/09/19 09:13:04;;;;;;;6.57;2.73;;;;;;;;;;5110448;28;20462;-71
2021/09/19 09:15:33;;;;;;;4.87;3.07;;;;;;;;;;5115268;28;20867;-71
2021/09/19 09:18:04;;;;;;;4.63;2.90;;;;;;;;;;5099104;28;20451;-71
2021/09/19 09:20:56;;;;;;;3.50;2.13;;;;;;;;;;5116424;28;20587;-70
2021/09/19 09:23:26;;;;;;;6.73;3.27;;;;;;;;;;5096109;28;20871;-71
2021/09/19 09:26:16;;;;;;;3.93;2.70;;;;;;;;;;5116174;28;20442;-71
2021/09/19 09:28:48;;;;;;;2.93;2.23;;;;;;;;;;5116018;28;20462;-70
2021/09/19 09:31:21;;;;;;;5.90;2.93;;;;;;;;;;5103440;28;20527;-71
2021/09/19 09:34:02;;;;;;;5.20;2.10;;;;;;;;;;5116360;28;20455;-72
2021/09/19 09:36:34;;;;;;;6.37;2.57;;;;;;;;;;5108474;28;20556;-71
2021/09/19 09:39:06;;;;;;;4.43;1.90;;;;;;;;;;5104982;28;20452;-72
2021/09/19 09:41:41;;;;;;;3.40;1.80;;;;;;;;;;5104901;28;20539;-71
2021/09/19 09:44:34;;;;;;;3.37;2.23;;;;;;;;;;5105922;27;20867;-70
2021/09/19 09:47:02;;;;;;;4.63;1.73;;;;;;;;;;5109468;28;20484;-70
2021/09/19 09:49:38;;;;;;;2.77;2.03;;;;;;;;;;5109895;28;20443;-71
2021/09/19 09:52:12;;;;;;;3.20;2.23;;;;;;;;;;5114952;28;20443;-71
2021/09/19 09:54:48;;;;;;;4.10;2.50;;;;;;;;;;5114927;28;20545;-70
2021/09/19 09:57:28;;;;;;;5.73;2.17;;;;;;;;;;5117047;28;20457;-71
2021/09/19 10:00:00;;;;;;;4.07;2.17;;;;;;;;;;5116581;28;20534;-72
2021/09/19 10:02:29;;;;;;;4.50;2.33;;;;;;;;;;5116827;28;20459;-72
2021/09/19 10:04:57;;;;;;;2.53;1.73;;;;;;;;;;5116702;28;20439;-72
2021/09/19 10:07:28;;;;;;;3.90;2.20;;;;;;;;;;5115473;28;20479;-71
2021/09/19 10:10:05;;;;;;;4.80;2.47;;;;;;;;;;5115835;28;20457;-72
2021/09/19 10:12:33;;;;;;;3.07;1.80;;;;;;;;;;5107983;28;20534;-71
2021/09/19 10:15:05;;;;;;;4.47;1.80;;;;;;;;;;5126590;27;20545;-71
2021/09/19 10:17:33;;;;;;;4.80;2.10;;;;;;;;;;5115557;28;20447;-70
2021/09/19 10:20:02;;;;;;;2.90;1.83;;;;;;;;;;5116552;28;20457;-70
2021/09/19 10:22:33;;;;;;;2.73;1.63;;;;;;;;;;5100578;28;20558;-70
2021/09/19 10:25:05;;;;;;;4.90;2.47;;;;;;;;;;5115160;28;20467;-70
2021/09/19 10:27:40;;;;;;;3.13;1.83;;;;;;;;;;5111954;28;20570;-70
2021/09/19 10:30:11;;;;;;;2.80;1.93;;;;;;;;;;5107624;28;20556;-71
2021/09/19 10:32:40;;;;;;;3.23;2.20;;;;;;;;;;5106222;28;20514;-71
2021/09/19 10:35:23;;;;;;;4.20;2.00;;;;;;;;;;5109754;28;20490;-70
2021/09/19 10:37:52;;;;;;;3.60;1.90;;;;;;;;;;5102406;28;20882;-71
2021/09/19 10:40:35;;;;;;;3.20;2.13;;;;;;;;;;5117319;28;20454;-71
2021/09/19 10:43:04;;;;;;;4.97;2.70;;;;;;;;;;5116054;27;20463;-70
2021/09/19 10:45:42;;;;;;;3.27;1.87;;;;;;;;;;5116306;28;20498;-71
2021/09/19 10:48:17;;;;;;;4.40;2.37;;;;;;;;;;5113670;28;20485;-72
2021/09/19 10:50:46;;;;;;;3.50;2.00;;;;;;;;;;5115355;28;20854;-71
2021/09/19 10:53:28;;;;;;;5.00;2.70;;;;;;;;;;5113913;28;20447;-71
2021/09/19 10:56:00;;;;;;;4.40;2.40;;;;;;;;;;5114889;28;20454;-71
2021/09/19 10:58:29;;;;;;;3.40;2.07;;;;;;;;;;5114417;28;20546;-71
2021/09/19 11:01:16;;;;;;;4.00;1.50;;;;;;;;;;5115192;28;20828;-71
2021/09/19 11:03:45;;;;;;;4.83;1.80;;;;;;;;;;5115574;28;20465;-71
2021/09/19 11:06:25;;;;;;;3.37;1.93;;;;;;;;;;5117102;27;20450;-70
2021/09/19 11:08:53;;;;;;;3.73;2.10;;;;;;;;;;5114290;28;20478;-70
2021/09/19 11:11:26;;;;;;;3.90;2.07;;;;;;;;;;5114217;28;20442;-70
2021/09/19 11:13:55;;;;;;;2.87;1.97;;;;;;;;;;5114549;28;20454;-70
2021/09/19 11:16:43;;;;;;;4.37;2.27;;;;;;;;;;5114365;28;20475;-71
2021/09/19 11:19:47;;;;;;;3.40;2.37;;;;;;;;;;5109568;28;20447;-71
2021/09/19 11:22:28;;;;;;;2.57;1.80;;;;;;;;;;5097951;28;20462;-70
2021/09/19 11:24:56;;;;;;;3.00;1.90;;;;;;;;;;5113758;28;20820;-71
2021/09/19 11:27:25;;;;;;;3.03;1.67;;;;;;;;;;5114690;28;20946;-70
2021/09/19 11:29:53;;;;;;;2.97;1.60;;;;;;;;;;5115304;28;20462;-70
2021/09/19 11:32:23;;;;;;;4.97;2.37;;;;;;;;;;5109526;28;20887;-70
2021/09/19 11:34:51;;;;;;;3.27;1.57;;;;;;;;;;5107099;28;20801;-70
2021/09/19 11:37:23;;;;;;;3.30;1.37;;;;;;;;;;5117986;27;20445;-71
2021/09/19 11:39:52;;;;;;;4.77;1.60;;;;;;;;;;5115513;28;20451;-70
2021/09/19 11:42:35;;;;;;;5.80;1.80;;;;;;;;;;5117048;28;20710;-71
2021/09/19 11:45:10;;;;;;;6.77;1.97;;;;;;;;;;5107216;28;20579;-71
2021/09/19 11:47:48;;;;;;;3.53;2.10;;;;;;;;;;5115345;28;20478;-71
2021/09/19 11:50:16;;;;;;;3.00;1.50;;;;;;;;;;5106218;28;20462;-70
2021/09/19 11:52:47;;;;;;;4.10;1.73;;;;;;;;;;5115025;28;20443;-70
2021/09/19 11:55:28;;;;;;;1.73;1.10;;;;;;;;;;5109038;28;20475;-70
2021/09/19 11:58:05;;;;;;;3.70;1.87;;;;;;;;;;5114861;28;20511;-70
2021/09/19 12:00:45;;;;;;;4.57;2.03;;;;;;;;;;5114783;28;20566;-71
2021/09/19 12:03:18;;;;;;;3.20;1.90;;;;;;;;;;5107893;28;20528;-70
2021/09/19 12:05:53;;;;;;;4.43;2.13;;;;;;;;;;5106265;28;20450;-71
2021/09/19 12:08:22;;;;;;;5.90;2.43;;;;;;;;;;5114842;28;20570;-71
2021/09/19 12:10:55;;;;;;;3.90;2.40;;;;;;;;;;5115146;28;20553;-71
2021/09/19 12:13:29;;;;;;;3.50;1.80;;;;;;;;;;5113853;28;20446;-72
2021/09/19 12:15:58;;;;;;;2.10;1.47;;;;;;;;;;5106251;28;21255;-72
2021/09/19 12:18:32;;;;;;;5.83;2.40;;;;;;;;;;5114638;28;20439;-72
2021/09/19 12:21:01;;;;;;;5.23;2.20;;;;;;;;;;5105996;28;20455;-72
2021/09/19 12:23:52;;;;;;;3.40;1.90;;;;;;;;;;5117335;28;20454;-72
2021/09/19 12:26:25;;;;;;;3.00;2.10;;;;;;;;;;5111978;28;20450;-71
2021/09/19 12:28:57;;;;;;;4.73;1.83;;;;;;;;;;5109816;28;20482;-71
2021/09/19 12:31:38;;;;;;;3.63;1.90;;;;;;;;;;5110878;28;20850;-71
2021/09/19 12:34:26;;;;;;;3.17;2.13;;;;;;;;;;5117286;28;20457;-72
2021/09/19 12:36:58;;;;;;;4.37;2.30;;;;;;;;;;5108207;28;20473;-72
2021/09/19 12:39:27;;;;;;;2.07;1.37;;;;;;;;;;5112639;28;20451;-72
2021/09/19 12:42:01;;;;;;;2.67;1.40;;;;;;;;;;5118031;28;20907;-71
2021/09/19 12:44:31;;;;;;;4.37;1.73;;;;;;;;;;5109879;28;20447;-72
2021/09/19 12:47:02;;;;;;;3.20;1.63;;;;;;;;;;5114805;28;20967;-71
2021/09/19 12:49:43;;;;;;;4.70;2.60;;;;;;;;;;5109444;28;20487;-72
2021/09/19 12:52:12;;;;;;;3.70;1.73;;;;;;;;;;5101213;28;20457;-72
2021/09/19 12:54:48;;;;;;;3.40;1.50;;;;;;;;;;5102379;28;20509;-71
2021/09/19 12:57:17;;;;;;;3.30;1.97;;;;;;;;;;5116920;28;20434;-72
2021/09/19 12:59:45;;;;;;;3.40;1.33;;;;;;;;;;5108109;28;20455;-71
2021/09/19 13:02:16;;;;;;;2.60;1.70;;;;;;;;;;5115905;28;20485;-72
2021/09/19 13:04:51;;;;;;;4.43;1.60;;;;;;;;;;5117902;28;20443;-72
2021/09/19 13:07:23;;;;;;;2.30;1.40;;;;;;;;;;5117559;28;20466;-72
2021/09/19 13:09:52;;;;;;;2.20;1.43;;;;;;;;;;5114917;28;20442;-72
2021/09/19 13:12:23;;;;;;;3.00;1.20;;;;;;;;;;5117140;28;20531;-73
2021/09/19 13:14:53;;;;;;;2.70;1.90;;;;;;;;;;5117622;28;20477;-72
2021/09/19 13:17:28;;;;;;;3.50;1.70;;;;;;;;;;5116905;28;20517;-73
2021/09/19 13:20:21;;;;;;;8.13;1.80;;;;;;;;;;5118123;28;20924;-70
2021/09/19 13:22:55;;;;;;;5.43;1.83;;;;;;;;;;5115938;28;20431;-71
2021/09/19 13:25:24;;;;;;;3.27;1.77;;;;;;;;;;5115018;28;20431;-72
2021/09/19 13:28:06;;;;;;;9.00;6.03;;;;;;;;;;5118139;28;20490;-72
2021/09/19 13:30:35;;;;;;;3.90;1.70;;;;;;;;;;5116540;28;20457;-71
2021/09/19 13:33:11;;;;;;;7.83;2.30;;;;;;;;;;5115864;28;20459;-71
2021/09/19 13:35:48;;;;;;;7.20;2.10;;;;;;;;;;5116220;28;20533;-72
2021/09/19 13:38:38;;;;;;;2.60;1.70;;;;;;;;;;5097906;28;20504;-72
2021/09/19 13:41:07;;;;;;;7.43;2.97;;;;;;;;;;5116836;28;20471;-72
2021/09/19 13:43:36;;;;;;;5.80;2.23;;;;;;;;;;5114593;28;20792;-70
2021/09/19 13:46:11;;;;;;;2.70;1.50;;;;;;;;;;5115397;28;20470;-70
2021/09/19 13:48:42;;;;;;;4.07;1.60;;;;;;;;;;5116364;28;20549;-70
2021/09/19 13:51:12;;;;;;;4.43;2.50;;;;;;;;;;5101921;28;20743;-70
2021/09/19 13:53:40;;;;;;;4.73;1.40;;;;;;;;;;5095446;28;20476;-70
2021/09/19 13:56:08;;;;;;;2.40;2.20;;;;;;;;;;5107032;28;20541;-70
2021/09/19 13:58:36;;;;;;;3.33;2.10;;;;;;;;;;5115047;28;20532;-70
2021/09/19 14:01:10;;;;;;;4.23;2.13;;;;;;;;;;5113210;28;20768;-71
2021/09/19 14:03:41;;;;;;;3.57;2.80;;;;;;;;;;5099209;28;21041;-70
2021/09/19 14:06:24;;;;;;;3.27;2.63;;;;;;;;;;5107858;28;20512;-70
2021/09/19 14:08:58;;;;;;;3.13;1.73;;;;;;;;;;5116222;28;20478;-70
2021/09/19 14:11:28;;;;;;;4.70;2.03;;;;;;;;;;5107590;28;20450;-71
2021/09/19 14:14:08;;;;;;;3.50;1.80;;;;;;;;;;5115762;28;20460;-69
2021/09/19 14:16:39;;;;;;;5.07;3.47;;;;;;;;;;5106597;28;20545;-69
2021/09/19 14:19:16;;;;;;;2.37;1.70;;;;;;;;;;5108560;28;20484;-71
2021/09/19 14:21:45;;;;;;;3.50;1.70;;;;;;;;;;5108075;28;20482;-71
2021/09/19 14:24:15;;;;;;;4.47;2.13;;;;;;;;;;5115133;28;20542;-71
2021/09/19 14:26:49;;;;;;;6.57;2.00;;;;;;;;;;5107956;28;20455;-72
2021/09/19 14:29:24;;;;;;;2.90;2.00;;;;;;;;;;5115249;28;20511;-72
2021/09/19 14:31:58;;;;;;;3.43;1.83;;;;;;;;;;5097556;28;20918;-71
2021/09/19 14:34:27;;;;;;;4.90;1.60;;;;;;;;;;5096648;28;20505;-71
2021/09/19 14:36:56;;;;;;;2.67;1.77;;;;;;;;;;5115036;28;20863;-71
2021/09/19 14:39:25;;;;;;;3.80;1.93;;;;;;;;;;5115486;28;21056;-70
2021/09/19 14:41:54;;;;;;;4.30;2.00;;;;;;;;;;5116537;28;20476;-70
2021/09/19 14:44:28;;;;;;;3.43;2.37;;;;;;;;;;5116058;28;20446;-71
2021/09/19 14:46:57;;;;;;;3.00;1.40;;;;;;;;;;5115356;28;20434;-72
2021/09/19 14:49:29;;;;;;;5.30;2.37;;;;;;;;;;5115911;28;20543;-70
2021/09/19 14:52:00;;;;;;;3.70;2.03;;;;;;;;;;5114509;28;20490;-70
2021/09/19 14:54:28;;;;;;;5.27;2.23;;;;;;;;;;5115072;28;20456;-71
2021/09/19 15:02:33;;;;;;;4.30;2.13;;;;;;;;;;5096652;28;20462;-71
2021/09/19 15:05:04;;;;;;;4.00;2.37;;;;;;;;;;5116153;28;20455;-71
2021/09/19 15:07:38;;;;;;;5.23;2.67;;;;;;;;;;5115076;28;20721;-71
2021/09/19 15:10:10;;;;;;;3.53;1.73;;;;;;;;;;5115388;28;20570;-70
2021/09/19 15:12:38;;;;;;;4.70;1.60;;;;;;;;;;5115049;28;20469;-71